Flight Track Log - Related Links

Times and Time Zones

All times are in EDT time to prevent confusion due to time zone crossing. See the DAL1362 flight status page for this flight to view local times or setup timezone preferences in your user account.

Time Position Orientation Groundspeed Altitude Reporting Facility
EDT Latitude Longitude Course Direction KTS MPH feet Rate Location/Type
Fri 07:20:20 PM 33.6500 -84.3833 24° Northeast 142 163 2,400  Level Atlanta TRACON
Fri 07:21:20 PM 33.6833 -84.3333 51° Northeast 234 269 4,500 2,200 Climbing Atlanta TRACON
Fri 07:22:20 PM 33.7167 -84.2667 59° Northeast 274 315 6,800 1,751 Climbing Atlanta TRACON
Fri 07:23:00 PM 34.0631 -84.3217 12° North  Level FlightAware Approximate
Fri 07:24:00 PM 34.1694 -84.3044 North  Level FlightAware Approximate
Fri 07:24:25 PM 33.9108 -84.2917 354° North 335 386 9,900  Level Atlanta Center
Fri 07:25:00 PM 34.2713 -84.2615 24° Northeast  Level FlightAware Approximate
Fri 07:25:25 PM 34.0172 -84.3144 350° North 369 425 11,400  Level Atlanta Center
Fri 07:26:25 PM 34.1194 -84.3275 354° North 382 440 14,600 2,900 Climbing Atlanta Center
Fri 07:27:25 PM 34.2322 -84.3203 North 382 440 17,200 2,050 Climbing Atlanta Center
Fri 07:28:25 PM 34.3408 -84.2953 11° North 391 450 18,700 1,350 Climbing Atlanta Center
Fri 07:29:25 PM 34.4431 -84.2581 17° North 405 466 19,900 1,350 Climbing Atlanta Center
Fri 07:30:25 PM 34.5456 -84.1850 30° Northeast 419 482 21,400 1,450 Climbing Atlanta Center
Fri 07:31:25 PM 34.6561 -84.1094 29° Northeast 441 507 22,800 800 Climbing Atlanta Center
Fri 07:32:25 PM 34.7753 -84.0564 20° North 441 507 23,000 100 Climbing Atlanta Center
Fri 07:33:25 PM 34.8900 -83.9906 25° Northeast 447 514 23,000  Level Atlanta Center
Fri 07:34:25 PM 34.9881 -83.8942 39° Northeast 447 514 23,000  Level Atlanta Center
Fri 07:35:25 PM 35.0858 -83.7975 39° Northeast 447 514 23,000  Level Atlanta Center
Fri 07:36:25 PM 35.1858 -83.7058 37° Northeast 447 514 23,000  Level Atlanta Center
Fri 07:37:25 PM 35.2836 -83.6036 40° Northeast 452 520 23,000  Level Atlanta Center
Fri 07:38:25 PM 35.3769 -83.5064 40° Northeast 452 520 23,000 -50 Level Atlanta Center
Fri 07:39:25 PM 35.4706 -83.4039 42° Northeast 446 513 22,900 -650 Descending Atlanta Center
Fri 07:40:25 PM 35.5636 -83.2983 43° Northeast 441 507 21,700 -2,050 Descending Atlanta Center
Fri 07:41:25 PM 35.6550 -83.2006 41° Northeast 436 502 18,800 -2,550 Descending Atlanta Center
Fri 07:42:25 PM 35.7419 -83.1050 42° Northeast 425 489 16,600 -2,350 Descending Atlanta Center
Fri 07:43:25 PM 35.8289 -83.0322 34° Northeast 394 453 14,100 -2,300 Descending Atlanta Center
Fri 07:44:25 PM 35.9244 -82.9772 25° Northeast 367 422 12,000 -1,550 Descending Atlanta Center
Fri 07:45:25 PM 36.0094 -82.9169 30° Northeast 355 409 11,000 -800 Descending Atlanta Center
Fri 07:46:25 PM 36.0900 -82.8567 31° Northeast 343 395 10,400 -900 Descending Atlanta Center
Fri 07:47:25 PM 36.1625 -82.8069 29° Northeast 307 353 9,200 -1,550 Descending Atlanta Center
Fri 07:48:25 PM 36.2289 -82.7492 35° Northeast 285 328 7,300 -1,650 Descending Atlanta Center
Fri 07:49:25 PM 36.2928 -82.6914 36° Northeast 279 321 5,900 -1,300 Descending Atlanta Center
Fri 07:50:25 PM 36.3358 -82.6264 51° Northeast 250 288 4,700 -1,200 Descending Atlanta Center

Login

Don't have an account? Register now (free) for customized features, flight alerts, and more!